createdAt,value
2018-06-23T00:02:02.444Z,100177.00
2018-06-23T00:04:31.902Z,100180.00
2018-06-23T00:07:01.278Z,100186.00
2018-06-23T00:09:30.854Z,100181.00
2018-06-23T00:12:00.850Z,100190.00
2018-06-23T00:14:30.159Z,100186.00
2018-06-23T00:16:59.641Z,100187.00
2018-06-23T00:19:29.160Z,100182.00
2018-06-23T00:21:58.582Z,100178.00
2018-06-23T00:24:27.992Z,100195.00
2018-06-23T00:26:57.426Z,100184.00
2018-06-23T00:29:26.764Z,100181.00
2018-06-23T00:31:56.284Z,100183.00
2018-06-23T00:34:25.660Z,100182.00
2018-06-23T00:36:55.142Z,100179.00
2018-06-23T00:39:24.716Z,100177.00
2018-06-23T00:41:54.017Z,100186.00
2018-06-23T00:44:23.512Z,100186.00
2018-06-23T00:46:53.409Z,100183.00
2018-06-23T00:49:22.966Z,100179.00
2018-06-23T00:51:52.449Z,100179.00
2018-06-23T00:54:22.001Z,100179.00
2018-06-23T00:56:51.412Z,100180.00
2018-06-23T00:59:39.891Z,100186.00
2018-06-23T01:02:09.332Z,100177.00
2018-06-23T01:04:38.732Z,100175.00
2018-06-23T01:07:09.520Z,100174.00
2018-06-23T01:09:39.609Z,100176.00
2018-06-23T01:12:09.044Z,100174.00
2018-06-23T01:14:38.378Z,100178.00
2018-06-23T01:17:10.882Z,100181.00
2018-06-23T01:19:40.529Z,100177.00
2018-06-23T01:22:09.911Z,100182.00
2018-06-23T01:24:39.433Z,100180.00
2018-06-23T01:27:10.677Z,100177.00
2018-06-23T01:29:40.082Z,100182.00
2018-06-23T01:32:09.584Z,100180.00
2018-06-23T01:34:38.972Z,100176.00
2018-06-23T01:37:08.410Z,100182.00
2018-06-23T01:39:37.839Z,100177.00
2018-06-23T01:42:07.532Z,100184.00
2018-06-23T01:44:37.094Z,100185.00
2018-06-23T01:47:06.826Z,100189.00
2018-06-23T01:49:36.271Z,100177.00
2018-06-23T01:52:05.868Z,100178.00
2018-06-23T01:54:35.328Z,100175.00
2018-06-23T01:57:05.472Z,100190.00
2018-06-23T01:59:34.807Z,100185.00
2018-06-23T02:02:05.146Z,100186.00
2018-06-23T02:04:34.500Z,100184.00
2018-06-23T02:07:03.969Z,100170.00
2018-06-23T02:09:33.344Z,100181.00
2018-06-23T02:12:02.793Z,100172.00
2018-06-23T02:14:37.362Z,100167.00
2018-06-23T02:17:12.571Z,100168.00
2018-06-23T02:19:47.181Z,100165.00
2018-06-23T02:22:21.517Z,100172.00
2018-06-23T02:24:56.175Z,100171.00
2018-06-23T02:27:30.758Z,100171.00
2018-06-23T02:30:05.344Z,100166.00
2018-06-23T02:32:52.002Z,100170.00
2018-06-23T02:35:22.010Z,100168.00
2018-06-23T02:37:51.621Z,100172.00
2018-06-23T02:40:20.990Z,100171.00
2018-06-23T02:42:50.478Z,100170.00
2018-06-23T02:45:19.790Z,100169.00
2018-06-23T02:47:49.167Z,100175.00
2018-06-23T02:50:18.699Z,100169.00
2018-06-23T02:52:48.217Z,100172.00
2018-06-23T02:55:17.688Z,100174.00
2018-06-23T02:57:47.138Z,100173.00
2018-06-23T03:00:16.590Z,100171.00
2018-06-23T03:02:46.076Z,100173.00
2018-06-23T03:05:15.553Z,100172.00
2018-06-23T03:07:45.058Z,100168.00
2018-06-23T03:10:14.793Z,100175.00
2018-06-23T03:12:44.257Z,100177.00
2018-06-23T03:15:14.446Z,100174.00
2018-06-23T03:17:43.945Z,100184.00
2018-06-23T03:20:13.945Z,100172.00
2018-06-23T03:22:43.442Z,100177.00
2018-06-23T03:25:12.936Z,100180.00
2018-06-23T03:27:42.976Z,100179.00
2018-06-23T03:30:12.388Z,100184.00
2018-06-23T03:32:42.304Z,100173.00
2018-06-23T03:35:11.731Z,100177.00
2018-06-23T03:37:40.839Z,100173.00
2018-06-23T03:40:10.303Z,100175.00
2018-06-23T03:42:39.817Z,100177.00
2018-06-23T03:45:09.450Z,100178.00
2018-06-23T03:47:38.725Z,100180.00
2018-06-23T03:50:08.280Z,100178.00
2018-06-23T03:52:37.778Z,100176.00
2018-06-23T03:55:07.512Z,100173.00
2018-06-23T03:57:37.057Z,100173.00
2018-06-23T04:00:06.500Z,100169.00
2018-06-23T04:02:35.996Z,100172.00
2018-06-23T04:05:05.577Z,100169.00
2018-06-23T04:07:35.012Z,100181.00
2018-06-23T04:10:04.513Z,100177.00
2018-06-23T04:12:33.850Z,100176.00
2018-06-23T04:15:03.240Z,100179.00
2018-06-23T04:17:32.746Z,100179.00
2018-06-23T04:20:02.129Z,100182.00
2018-06-23T04:22:31.553Z,100179.00
2018-06-23T04:25:00.952Z,100176.00
2018-06-23T04:27:37.065Z,100184.00
2018-06-23T04:30:06.535Z,100192.00
2018-06-23T04:32:35.951Z,100185.00
2018-06-23T04:35:05.567Z,100193.00
2018-06-23T04:37:34.991Z,100192.00
2018-06-23T04:40:04.489Z,100194.00
2018-06-23T04:42:33.852Z,100201.00
2018-06-23T04:45:03.386Z,100192.00
2018-06-23T04:47:32.885Z,100180.00
2018-06-23T04:50:02.398Z,100189.00
2018-06-23T04:52:31.791Z,100187.00
2018-06-23T04:55:01.341Z,100192.00
2018-06-23T04:57:31.214Z,100187.00
2018-06-23T05:00:00.642Z,100179.00
2018-06-23T05:02:30.046Z,100187.00
2018-06-23T05:04:59.525Z,100190.00
2018-06-23T05:07:29.098Z,100186.00
2018-06-23T05:09:58.734Z,100185.00
2018-06-23T05:12:28.305Z,100193.00
2018-06-23T05:14:57.393Z,100187.00
2018-06-23T05:17:26.750Z,100190.00
2018-06-23T05:19:56.171Z,100190.00
2018-06-23T05:22:25.589Z,100200.00
2018-06-23T05:24:55.115Z,100197.00
2018-06-23T05:27:24.681Z,100198.00
2018-06-23T05:29:54.018Z,100198.00
2018-06-23T05:32:23.556Z,100196.00
2018-06-23T05:34:52.931Z,100197.00
2018-06-23T05:37:22.474Z,100191.00
2018-06-23T05:39:51.863Z,100196.00
2018-06-23T05:42:28.196Z,100199.00
2018-06-23T05:44:57.732Z,100202.00
2018-06-23T05:47:27.141Z,100193.00
2018-06-23T05:49:56.530Z,100205.00
2018-06-23T05:52:25.980Z,100191.00
2018-06-23T05:54:55.350Z,100191.00
2018-06-23T05:57:24.709Z,100187.00
2018-06-23T05:59:54.018Z,100180.00
2018-06-23T06:02:23.374Z,100180.00
2018-06-23T06:04:52.848Z,100191.00
2018-06-23T06:07:22.276Z,100185.00
2018-06-23T06:09:51.795Z,100185.00
2018-06-23T06:12:21.214Z,100177.00
2018-06-23T06:14:50.601Z,100177.00
2018-06-23T06:17:25.461Z,100178.00
2018-06-23T06:19:57.659Z,100183.00
2018-06-23T06:22:28.290Z,100184.00
2018-06-23T06:24:58.081Z,100177.00
2018-06-23T06:27:27.600Z,100177.00
2018-06-23T06:29:58.249Z,100179.00
2018-06-23T06:32:28.245Z,100176.00
2018-06-23T06:34:57.848Z,100191.00
2018-06-23T06:37:27.341Z,100190.00
2018-06-23T06:39:56.678Z,100195.00
2018-06-23T06:42:26.064Z,100186.00
2018-06-23T06:44:55.680Z,100185.00
2018-06-23T06:47:25.088Z,100177.00
2018-06-23T06:49:54.594Z,100181.00
2018-06-23T06:52:24.097Z,100180.00
2018-06-23T06:54:53.509Z,100182.00
2018-06-23T06:57:23.852Z,100173.00
2018-06-23T06:59:53.500Z,100176.00
2018-06-23T07:02:23.012Z,100182.00
2018-06-23T07:04:52.384Z,100176.00
2018-06-23T07:07:21.879Z,100174.00
2018-06-23T07:09:51.360Z,100169.00
2018-06-23T07:12:20.690Z,100163.00
2018-06-23T07:14:50.205Z,100163.00
2018-06-23T07:17:19.581Z,100166.00
2018-06-23T07:19:48.989Z,100166.00
2018-06-23T07:22:18.521Z,100160.00
2018-06-23T07:24:47.896Z,100158.00
2018-06-23T07:27:17.377Z,100166.00
2018-06-23T07:29:46.840Z,100164.00
2018-06-23T07:32:16.385Z,100160.00
2018-06-23T07:34:45.921Z,100171.00
2018-06-23T07:37:15.355Z,100175.00
2018-06-23T07:39:44.857Z,100180.00
2018-06-23T07:42:14.254Z,100183.00
2018-06-23T07:44:43.629Z,100183.00
2018-06-23T07:47:13.455Z,100202.00
2018-06-23T07:49:42.829Z,100189.00
2018-06-23T07:52:12.315Z,100195.00
2018-06-23T07:54:41.716Z,100205.00
2018-06-23T07:57:11.161Z,100212.00
2018-06-23T07:59:40.727Z,100205.00
2018-06-23T08:02:10.171Z,100213.00
2018-06-23T08:04:39.570Z,100222.00
2018-06-23T08:07:09.076Z,100227.00
2018-06-23T08:09:38.484Z,100225.00
2018-06-23T08:12:08.001Z,100225.00
2018-06-23T08:14:37.505Z,100219.00
2018-06-23T08:17:07.105Z,100224.00
2018-06-23T08:19:36.489Z,100227.00
2018-06-23T08:22:06.012Z,100230.00
2018-06-23T08:24:35.535Z,100233.00
2018-06-23T08:27:05.337Z,100227.00
2018-06-23T08:29:35.350Z,100232.00
2018-06-23T08:32:04.767Z,100237.00
2018-06-23T08:34:34.720Z,100226.00
2018-06-23T08:37:04.202Z,100230.00
2018-06-23T08:39:33.617Z,100232.00
2018-06-23T08:42:02.717Z,100222.00
2018-06-23T08:44:32.205Z,100225.00
2018-06-23T08:47:02.701Z,100221.00
2018-06-23T08:49:32.201Z,100222.00
2018-06-23T08:54:33.329Z,100217.00
2018-06-23T08:57:02.984Z,100222.00
2018-06-23T08:59:32.346Z,100224.00
2018-06-23T09:02:01.892Z,100221.00
2018-06-23T09:04:31.399Z,100212.00
2018-06-23T09:07:00.891Z,100219.00
2018-06-23T09:09:30.380Z,100211.00
2018-06-23T09:11:59.761Z,100211.00
2018-06-23T09:14:29.844Z,100217.00
2018-06-23T09:16:59.175Z,100211.00
2018-06-23T09:19:30.620Z,100211.00
2018-06-23T09:21:59.777Z,100206.00
2018-06-23T09:24:29.199Z,100210.00
2018-06-23T09:26:58.588Z,100204.00
2018-06-23T09:29:28.059Z,100205.00
2018-06-23T09:31:57.832Z,100214.00
2018-06-23T09:34:27.746Z,100208.00
2018-06-23T09:36:57.481Z,100204.00
2018-06-23T09:39:27.275Z,100204.00
2018-06-23T09:41:56.835Z,100199.00
2018-06-23T09:44:26.267Z,100199.00
2018-06-23T09:46:55.377Z,100190.00
2018-06-23T09:49:24.473Z,100204.00
2018-06-23T09:51:53.951Z,100194.00
2018-06-23T09:54:24.083Z,100200.00
2018-06-23T09:56:53.591Z,100211.00
2018-06-23T09:59:23.081Z,100213.00
2018-06-23T10:01:52.491Z,100207.00
2018-06-23T10:04:22.045Z,100208.00
2018-06-23T10:06:51.397Z,100203.00
2018-06-23T10:09:20.942Z,100197.00
2018-06-23T10:11:50.576Z,100202.00
2018-06-23T10:14:20.051Z,100200.00
2018-06-23T10:16:49.903Z,100199.00
2018-06-23T10:19:19.349Z,100199.00
2018-06-23T10:21:48.825Z,100200.00
2018-06-23T10:24:18.334Z,100200.00
2018-06-23T10:26:47.830Z,100194.00
2018-06-23T10:29:17.306Z,100195.00
2018-06-23T10:31:46.806Z,100195.00
2018-06-23T10:34:16.320Z,100192.00
2018-06-23T10:36:45.829Z,100192.00
2018-06-23T10:39:15.193Z,100191.00
2018-06-23T10:41:44.594Z,100199.00
2018-06-23T10:44:14.061Z,100202.00
2018-06-23T10:46:43.472Z,100195.00
2018-06-23T10:49:12.866Z,100194.00
2018-06-23T10:51:42.363Z,100199.00
2018-06-23T10:54:11.838Z,100196.00
2018-06-23T10:56:41.282Z,100193.00
2018-06-23T10:59:11.309Z,100196.00
2018-06-23T11:01:41.175Z,100196.00
2018-06-23T11:04:10.831Z,100199.00
2018-06-23T11:06:40.273Z,100200.00
2018-06-23T11:09:10.543Z,100195.00
2018-06-23T11:11:40.133Z,100192.00
2018-06-23T11:14:09.489Z,100195.00
2018-06-23T11:16:38.987Z,100193.00
2018-06-23T11:19:08.392Z,100198.00
2018-06-23T11:21:37.766Z,100194.00
2018-06-23T11:24:07.155Z,100191.00
2018-06-23T11:26:37.270Z,100192.00
2018-06-23T11:29:06.677Z,100204.00
2018-06-23T11:31:36.135Z,100199.00
2018-06-23T11:34:05.606Z,100195.00
2018-06-23T11:36:35.005Z,100196.00
2018-06-23T11:39:06.141Z,100197.00
2018-06-23T11:41:35.544Z,100188.00
2018-06-23T11:44:05.032Z,100193.00
2018-06-23T11:46:34.637Z,100190.00
2018-06-23T11:49:04.073Z,100188.00
2018-06-23T11:51:33.587Z,100180.00
2018-06-23T11:54:03.138Z,100186.00
2018-06-23T11:56:32.589Z,100185.00
2018-06-23T11:59:01.981Z,100185.00
2018-06-23T12:01:31.525Z,100185.00
2018-06-23T12:04:00.894Z,100183.00
2018-06-23T12:06:30.296Z,100180.00
2018-06-23T12:08:59.810Z,100180.00
2018-06-23T12:11:29.274Z,100166.00
2018-06-23T12:13:58.700Z,100174.00
2018-06-23T12:16:28.153Z,100176.00
2018-06-23T12:18:57.621Z,100168.00
2018-06-23T12:21:27.162Z,100170.00
2018-06-23T12:23:56.544Z,100174.00
2018-06-23T12:26:26.076Z,100162.00
2018-06-23T12:28:55.483Z,100163.00
2018-06-23T12:31:25.097Z,100170.00
2018-06-23T12:33:54.636Z,100168.00
2018-06-23T12:36:23.798Z,100161.00
2018-06-23T12:38:53.257Z,100152.00
2018-06-23T12:41:22.861Z,100149.00
2018-06-23T12:43:52.219Z,100150.00
2018-06-23T12:46:21.677Z,100150.00
2018-06-23T12:48:51.063Z,100144.00
2018-06-23T12:51:20.952Z,100144.00
2018-06-23T12:53:50.420Z,100152.00
2018-06-23T12:56:19.854Z,100147.00
2018-06-23T12:58:49.710Z,100152.00
2018-06-23T13:01:19.180Z,100151.00
2018-06-23T13:03:48.739Z,100148.00
2018-06-23T13:06:18.182Z,100136.00
2018-06-23T13:08:47.638Z,100131.00
2018-06-23T13:11:17.008Z,100126.00
2018-06-23T13:13:46.431Z,100121.00
2018-06-23T13:16:16.060Z,100123.00
2018-06-23T13:18:45.632Z,100109.00
2018-06-23T13:21:15.198Z,100103.00
2018-06-23T13:23:45.532Z,100109.00
2018-06-23T13:26:15.018Z,100105.00
2018-06-23T13:28:45.231Z,100108.00
2018-06-23T13:31:15.983Z,100107.00
2018-06-23T13:33:45.077Z,100112.00
2018-06-23T13:36:14.958Z,100102.00
2018-06-23T13:38:44.293Z,100100.00
2018-06-23T13:41:13.919Z,100109.00
2018-06-23T13:43:43.512Z,100105.00
2018-06-23T13:46:13.047Z,100101.00
2018-06-23T13:48:42.496Z,100106.00
2018-06-23T13:51:11.934Z,100106.00
2018-06-23T13:53:41.319Z,100114.00
2018-06-23T13:56:10.749Z,100118.00
2018-06-23T13:58:40.215Z,100124.00
2018-06-23T14:01:09.666Z,100118.00
2018-06-23T14:03:39.043Z,100132.00
2018-06-23T14:06:08.419Z,100131.00
2018-06-23T14:08:38.297Z,100125.00
2018-06-23T14:11:07.792Z,100125.00
2018-06-23T14:13:37.912Z,100129.00
2018-06-23T14:16:07.418Z,100127.00
2018-06-23T14:18:37.106Z,100132.00
2018-06-23T14:21:06.654Z,100144.00
2018-06-23T14:23:36.053Z,100133.00
2018-06-23T14:26:05.555Z,100141.00
2018-06-23T14:28:34.996Z,100139.00
2018-06-23T14:31:04.477Z,100134.00
2018-06-23T14:33:33.972Z,100137.00
2018-06-23T14:36:03.925Z,100136.00
2018-06-23T14:38:33.318Z,100152.00
2018-06-23T14:41:02.746Z,100146.00
2018-06-23T14:43:33.142Z,100146.00
2018-06-23T14:46:02.654Z,100153.00
2018-06-23T14:48:32.556Z,100157.00
2018-06-23T14:51:01.987Z,100151.00
2018-06-23T14:53:31.381Z,100149.00
2018-06-23T14:56:00.915Z,100146.00
2018-06-23T14:58:30.422Z,100145.00
2018-06-23T15:00:59.942Z,100143.00
2018-06-23T15:03:29.313Z,100128.00
2018-06-23T15:05:59.067Z,100127.00
2018-06-23T15:08:45.533Z,100132.00
2018-06-23T15:11:32.056Z,100127.00
2018-06-23T15:14:01.141Z,100123.00
2018-06-23T15:16:30.557Z,100127.00
2018-06-23T15:19:00.116Z,100131.00
2018-06-23T15:21:29.648Z,100123.00
2018-06-23T15:23:59.028Z,100129.00
2018-06-23T15:26:28.434Z,100125.00
2018-06-23T15:28:58.809Z,100134.00
2018-06-23T15:31:28.306Z,100125.00
2018-06-23T15:33:57.917Z,100125.00
2018-06-23T15:36:27.304Z,100127.00
2018-06-23T15:38:56.723Z,100135.00
2018-06-23T15:41:26.154Z,100135.00
2018-06-23T15:43:55.545Z,100128.00
2018-06-23T15:46:25.055Z,100138.00
2018-06-23T15:48:54.566Z,100130.00
2018-06-23T15:51:23.927Z,100133.00
2018-06-23T15:53:53.497Z,100131.00
2018-06-23T15:56:22.970Z,100129.00
2018-06-23T15:58:52.491Z,100124.00
2018-06-23T16:01:22.002Z,100120.00
2018-06-23T16:03:51.442Z,100122.00
2018-06-23T16:06:21.327Z,100113.00
2018-06-23T16:08:50.785Z,100127.00
2018-06-23T16:11:20.161Z,100129.00
2018-06-23T16:13:49.647Z,100129.00
2018-06-23T16:16:19.034Z,100123.00
2018-06-23T16:18:48.547Z,100115.00
2018-06-23T16:21:17.949Z,100124.00
2018-06-23T16:23:47.536Z,100111.00
2018-06-23T16:26:16.993Z,100120.00
2018-06-23T16:28:46.413Z,100117.00
2018-06-23T16:31:15.815Z,100118.00
2018-06-23T16:33:46.257Z,100118.00
2018-06-23T16:36:15.758Z,100118.00
2018-06-23T16:38:44.968Z,100112.00
2018-06-23T16:41:14.474Z,100123.00
2018-06-23T16:43:43.977Z,100122.00
2018-06-23T16:46:13.494Z,100126.00
2018-06-23T16:48:42.869Z,100116.00
2018-06-23T16:51:13.371Z,100119.00
2018-06-23T16:53:42.870Z,100117.00
2018-06-23T16:56:12.357Z,100114.00
2018-06-23T16:58:41.955Z,100119.00
2018-06-23T17:01:11.402Z,100122.00
2018-06-23T17:03:41.058Z,100116.00
2018-06-23T17:06:10.477Z,100121.00
2018-06-23T17:08:40.587Z,100125.00
2018-06-23T17:11:10.209Z,100109.00
2018-06-23T17:13:39.833Z,100114.00
2018-06-23T17:16:09.274Z,100110.00
2018-06-23T17:18:39.115Z,100121.00
2018-06-23T17:21:09.684Z,100109.00
2018-06-23T17:23:39.228Z,100111.00
2018-06-23T17:26:08.690Z,100116.00
2018-06-23T17:28:38.190Z,100116.00
2018-06-23T17:31:07.677Z,100109.00
2018-06-23T17:33:38.339Z,100101.00
2018-06-23T17:36:07.926Z,100103.00
2018-06-23T17:38:37.957Z,100100.00
2018-06-23T17:41:07.480Z,100118.00
2018-06-23T17:43:36.885Z,100098.00
2018-06-23T17:46:06.375Z,100108.00
2018-06-23T17:48:35.766Z,100106.00
2018-06-23T17:51:05.402Z,100105.00
2018-06-23T17:53:34.771Z,100102.00
2018-06-23T17:56:04.523Z,100101.00
2018-06-23T17:58:34.022Z,100094.00
2018-06-23T18:01:03.587Z,100104.00
2018-06-23T18:03:33.525Z,100098.00
2018-06-23T18:06:03.093Z,100103.00
2018-06-23T18:08:33.211Z,100099.00
2018-06-23T18:11:02.742Z,100096.00
2018-06-23T18:13:32.313Z,100108.00
2018-06-23T18:16:01.755Z,100090.00
2018-06-23T18:18:30.984Z,100102.00
2018-06-23T18:21:00.443Z,100102.00
2018-06-23T18:23:29.789Z,100101.00
2018-06-23T18:25:59.363Z,100101.00
2018-06-23T18:28:29.290Z,100108.00
2018-06-23T18:30:58.858Z,100099.00
2018-06-23T18:33:28.341Z,100106.00
2018-06-23T18:35:57.997Z,100109.00
2018-06-23T18:38:27.518Z,100111.00
2018-06-23T18:40:56.878Z,100113.00
2018-06-23T18:43:26.307Z,100114.00
2018-06-23T18:45:56.553Z,100116.00
2018-06-23T18:48:26.065Z,100115.00
2018-06-23T18:50:55.467Z,100109.00
2018-06-23T18:53:25.057Z,100118.00
2018-06-23T18:55:54.484Z,100119.00
2018-06-23T18:58:24.108Z,100122.00
2018-06-23T19:00:53.466Z,100126.00
2018-06-23T19:03:23.028Z,100127.00
2018-06-23T19:05:52.629Z,100123.00
2018-06-23T19:08:22.009Z,100130.00
2018-06-23T19:10:51.570Z,100133.00
2018-06-23T19:13:20.917Z,100132.00
2018-06-23T19:15:50.440Z,100136.00
2018-06-23T19:18:19.798Z,100135.00
2018-06-23T19:20:49.184Z,100136.00
2018-06-23T19:23:18.886Z,100140.00
2018-06-23T19:25:48.305Z,100132.00
2018-06-23T19:28:17.876Z,100144.00
2018-06-23T19:30:47.297Z,100135.00
2018-06-23T19:33:16.797Z,100133.00
2018-06-23T19:35:46.315Z,100135.00
2018-06-23T19:38:15.535Z,100139.00
2018-06-23T19:40:45.456Z,100144.00
2018-06-23T19:43:15.419Z,100143.00
2018-06-23T19:45:45.026Z,100147.00
2018-06-23T19:48:14.584Z,100156.00
2018-06-23T19:50:44.059Z,100147.00
2018-06-23T19:53:13.576Z,100152.00
2018-06-23T19:55:44.018Z,100150.00
2018-06-23T19:58:14.056Z,100149.00
2018-06-23T20:00:43.491Z,100157.00
2018-06-23T20:03:13.048Z,100163.00
2018-06-23T20:05:42.612Z,100161.00
2018-06-23T20:08:12.561Z,100155.00
2018-06-23T20:10:42.016Z,100155.00
2018-06-23T20:13:11.568Z,100157.00
2018-06-23T20:15:41.670Z,100154.00
2018-06-23T20:18:11.137Z,100157.00
2018-06-23T20:20:40.725Z,100154.00
2018-06-23T20:23:10.063Z,100158.00
2018-06-23T20:25:39.560Z,100159.00
2018-06-23T20:28:08.977Z,100159.00
2018-06-23T20:30:38.305Z,100156.00
2018-06-23T20:33:07.893Z,100154.00
2018-06-23T20:35:37.280Z,100165.00
2018-06-23T20:38:06.638Z,100152.00
2018-06-23T20:40:36.242Z,100154.00
2018-06-23T20:43:06.062Z,100154.00
2018-06-23T20:45:35.545Z,100161.00
2018-06-23T20:48:04.912Z,100164.00
2018-06-23T20:50:34.433Z,100163.00
2018-06-23T20:53:03.924Z,100162.00
2018-06-23T20:55:33.105Z,100159.00
2018-06-23T20:58:02.557Z,100163.00
2018-06-23T21:00:31.964Z,100155.00
2018-06-23T21:03:01.353Z,100159.00
2018-06-23T21:05:30.884Z,100160.00
2018-06-23T21:08:00.829Z,100157.00
2018-06-23T21:10:41.690Z,100163.00
2018-06-23T21:13:11.708Z,100165.00
2018-06-23T21:15:41.225Z,100161.00
2018-06-23T21:18:11.235Z,100163.00
2018-06-23T21:20:40.628Z,100165.00
2018-06-23T21:23:09.958Z,100160.00
2018-06-23T21:25:39.411Z,100155.00
2018-06-23T21:28:08.827Z,100156.00
2018-06-23T21:30:38.282Z,100160.00
2018-06-23T21:33:07.657Z,100158.00
2018-06-23T21:35:37.050Z,100152.00
2018-06-23T21:38:06.586Z,100153.00
2018-06-23T21:40:36.037Z,100161.00
2018-06-23T21:43:05.893Z,100156.00
2018-06-23T21:45:35.542Z,100159.00
2018-06-23T21:48:04.952Z,100151.00
2018-06-23T21:50:34.398Z,100162.00
2018-06-23T21:53:03.893Z,100146.00
2018-06-23T21:55:33.357Z,100155.00
2018-06-23T21:58:02.810Z,100151.00
2018-06-23T22:00:35.685Z,100150.00
2018-06-23T22:03:07.011Z,100148.00
2018-06-23T22:05:36.770Z,100153.00
2018-06-23T22:08:07.518Z,100149.00
2018-06-23T22:10:37.078Z,100146.00
2018-06-23T22:13:06.225Z,100144.00
2018-06-23T22:15:35.786Z,100144.00
2018-06-23T22:18:05.125Z,100154.00
2018-06-23T22:20:34.557Z,100143.00
2018-06-23T22:23:04.058Z,100139.00
2018-06-23T22:25:33.565Z,100139.00
2018-06-23T22:28:02.955Z,100143.00
2018-06-23T22:30:32.918Z,100138.00
2018-06-23T22:33:03.262Z,100140.00
2018-06-23T22:35:32.763Z,100138.00
2018-06-23T22:38:02.131Z,100140.00
2018-06-23T22:40:31.548Z,100139.00
2018-06-23T22:43:00.897Z,100139.00
2018-06-23T22:45:30.377Z,100140.00
2018-06-23T22:47:59.882Z,100137.00
2018-06-23T22:50:29.417Z,100138.00
2018-06-23T22:52:58.997Z,100140.00
2018-06-23T22:55:28.571Z,100139.00
2018-06-23T22:57:57.982Z,100140.00
2018-06-23T23:00:27.556Z,100136.00
2018-06-23T23:02:57.448Z,100142.00
2018-06-23T23:05:26.936Z,100147.00
2018-06-23T23:07:56.977Z,100138.00
2018-06-23T23:10:26.333Z,100136.00
2018-06-23T23:12:55.969Z,100133.00
2018-06-23T23:15:25.310Z,100131.00
2018-06-23T23:17:54.708Z,100133.00
2018-06-23T23:20:24.060Z,100128.00
2018-06-23T23:22:53.447Z,100131.00
2018-06-23T23:25:22.887Z,100120.00
2018-06-23T23:27:53.040Z,100118.00
2018-06-23T23:30:22.571Z,100120.00
2018-06-23T23:32:52.089Z,100117.00
2018-06-23T23:35:21.550Z,100119.00
2018-06-23T23:37:51.607Z,100114.00
2018-06-23T23:40:20.974Z,100118.00
2018-06-23T23:42:50.536Z,100123.00
2018-06-23T23:45:19.632Z,100111.00
2018-06-23T23:47:49.120Z,100114.00
2018-06-23T23:50:18.555Z,100112.00
2018-06-23T23:52:48.082Z,100113.00
2018-06-23T23:55:17.557Z,100109.00
2018-06-23T23:57:46.929Z,100109.00
